createdAt,value
2022-12-03T00:02:14.150Z,22.73
2022-12-03T00:04:40.613Z,23.05
2022-12-03T00:07:07.011Z,24.28
2022-12-03T00:09:33.467Z,24.52
2022-12-03T00:11:59.906Z,23.76
2022-12-03T00:14:26.335Z,22.92
2022-12-03T00:16:52.777Z,24.13
2022-12-03T00:19:19.178Z,24.01
2022-12-03T00:21:45.606Z,23.81
2022-12-03T00:24:12.044Z,24.35
2022-12-03T00:26:38.519Z,24.91
2022-12-03T00:29:04.940Z,24.77
2022-12-03T00:31:31.422Z,24.64
2022-12-03T00:33:57.986Z,23.16
2022-12-03T00:36:24.384Z,24.21
2022-12-03T00:38:50.856Z,23.80
2022-12-03T00:41:17.271Z,23.26
2022-12-03T00:43:43.723Z,23.08
2022-12-03T00:46:10.301Z,24.05
2022-12-03T00:48:36.733Z,24.39
2022-12-03T00:51:03.182Z,24.30
2022-12-03T00:53:29.620Z,24.48
2022-12-03T00:55:56.031Z,25.07
2022-12-03T00:58:22.470Z,23.84
2022-12-03T01:00:48.893Z,26.12
2022-12-03T01:03:15.322Z,26.33
2022-12-03T01:05:41.775Z,25.85
2022-12-03T01:08:08.306Z,25.92
2022-12-03T01:10:34.736Z,25.52
2022-12-03T01:13:01.176Z,26.07
2022-12-03T01:15:27.609Z,26.47
2022-12-03T01:17:54.041Z,25.98
2022-12-03T01:20:20.483Z,26.02
2022-12-03T01:22:46.923Z,26.11
2022-12-03T01:25:13.375Z,26.13
2022-12-03T01:27:39.799Z,26.44
2022-12-03T01:30:06.255Z,26.20
2022-12-03T01:32:32.691Z,26.80
2022-12-03T01:34:59.093Z,26.40
2022-12-03T01:37:25.563Z,27.59
2022-12-03T01:39:52.033Z,26.29
2022-12-03T01:42:18.490Z,26.19
2022-12-03T01:44:44.950Z,26.82
2022-12-03T01:47:11.391Z,26.71
2022-12-03T01:49:37.844Z,27.39
2022-12-03T01:52:04.267Z,26.65
2022-12-03T01:54:30.686Z,27.62
2022-12-03T01:56:57.109Z,26.80
2022-12-03T01:59:23.533Z,26.62
2022-12-03T02:01:50.000Z,26.85
2022-12-03T02:04:16.604Z,27.17
2022-12-03T02:06:43.087Z,25.99
2022-12-03T02:09:09.533Z,27.19
2022-12-03T02:11:35.957Z,26.05
2022-12-03T02:14:02.383Z,26.97
2022-12-03T02:16:28.947Z,26.45
2022-12-03T02:18:55.440Z,25.89
2022-12-03T02:21:21.863Z,25.27
2022-12-03T02:23:48.291Z,24.62
2022-12-03T02:26:14.713Z,25.28
2022-12-03T02:28:41.145Z,24.77
2022-12-03T02:31:07.613Z,24.75
2022-12-03T02:33:34.051Z,24.95
2022-12-03T02:36:03.536Z,23.13
2022-12-03T02:38:30.421Z,23.50
2022-12-03T02:40:56.897Z,21.99
2022-12-03T02:43:23.310Z,21.66
2022-12-03T02:45:49.765Z,23.54
2022-12-03T02:48:16.222Z,21.65
2022-12-03T02:50:42.663Z,21.28
2022-12-03T02:53:09.103Z,21.69
2022-12-03T02:55:37.368Z,22.07
2022-12-03T02:58:03.970Z,22.81
2022-12-03T03:00:30.431Z,22.33
2022-12-03T03:02:56.948Z,22.41
2022-12-03T03:05:23.381Z,22.92
2022-12-03T03:07:49.873Z,23.47
2022-12-03T03:10:16.375Z,24.22
2022-12-03T03:12:42.853Z,25.23
2022-12-03T03:15:09.298Z,25.47
2022-12-03T03:17:35.722Z,23.23
2022-12-03T03:20:02.182Z,24.00
2022-12-03T03:22:28.594Z,24.86
2022-12-03T03:24:55.169Z,24.54
2022-12-03T03:27:21.968Z,25.61
2022-12-03T03:29:48.365Z,26.82
2022-12-03T03:32:14.798Z,25.27
2022-12-03T03:34:41.248Z,26.59
2022-12-03T03:37:07.713Z,25.76
2022-12-03T03:39:34.166Z,26.47
2022-12-03T03:42:00.613Z,26.51
2022-12-03T03:44:27.038Z,26.49
2022-12-03T03:46:53.472Z,26.93
2022-12-03T03:49:19.908Z,27.76
2022-12-03T03:51:46.370Z,28.15
2022-12-03T03:54:12.795Z,27.27
2022-12-03T03:56:39.242Z,27.80
2022-12-03T03:59:05.686Z,30.46
2022-12-03T04:01:32.231Z,28.63
2022-12-03T04:03:58.850Z,29.05
2022-12-03T04:06:25.296Z,28.29
2022-12-03T04:08:51.711Z,27.97
2022-12-03T04:11:18.129Z,28.24
2022-12-03T04:13:44.544Z,27.50
2022-12-03T04:16:11.029Z,28.29
2022-12-03T04:18:37.476Z,29.40
2022-12-03T04:21:04.010Z,29.68
2022-12-03T04:23:31.137Z,28.91
2022-12-03T04:25:57.660Z,30.36
2022-12-03T04:28:24.090Z,31.30
2022-12-03T04:30:50.559Z,30.51
2022-12-03T04:33:17.047Z,30.06
2022-12-03T04:35:43.550Z,28.58
2022-12-03T04:38:10.006Z,29.16
2022-12-03T04:40:36.454Z,29.32
2022-12-03T04:43:02.868Z,29.00
2022-12-03T04:45:29.260Z,30.00
2022-12-03T04:47:55.728Z,29.94
2022-12-03T04:50:22.170Z,30.95
2022-12-03T04:52:48.588Z,29.50
2022-12-03T04:55:15.033Z,30.60
2022-12-03T04:57:41.466Z,30.48
2022-12-03T05:00:07.916Z,30.45
2022-12-03T05:02:34.419Z,29.77
2022-12-03T05:05:00.922Z,30.17
2022-12-03T05:07:27.437Z,29.80
2022-12-03T05:09:53.854Z,30.20
2022-12-03T05:12:20.260Z,30.45
2022-12-03T05:14:46.708Z,29.42
2022-12-03T05:17:13.161Z,29.26
2022-12-03T05:19:39.647Z,29.52
2022-12-03T05:22:06.062Z,29.53
2022-12-03T05:24:32.484Z,29.44
2022-12-03T05:26:58.906Z,29.68
2022-12-03T05:29:25.318Z,28.10
2022-12-03T05:31:51.750Z,29.03
2022-12-03T05:34:18.187Z,26.99
2022-12-03T05:36:44.597Z,27.67
2022-12-03T05:39:11.034Z,26.32
2022-12-03T05:41:37.471Z,28.35
2022-12-03T05:44:03.906Z,26.76
2022-12-03T05:46:30.381Z,27.27
2022-12-03T05:48:56.875Z,27.54
2022-12-03T05:51:23.294Z,27.97
2022-12-03T05:53:49.751Z,27.89
2022-12-03T05:56:16.232Z,26.29
2022-12-03T05:58:42.634Z,26.06
2022-12-03T06:01:09.103Z,27.23
2022-12-03T06:03:35.632Z,27.97
2022-12-03T06:06:02.181Z,27.70
2022-12-03T06:08:28.601Z,26.70
2022-12-03T06:10:55.018Z,27.62
2022-12-03T06:13:21.520Z,28.68
2022-12-03T06:15:48.003Z,26.99
2022-12-03T06:18:14.455Z,25.86
2022-12-03T06:20:40.975Z,26.59
2022-12-03T06:23:07.396Z,28.92
2022-12-03T06:25:33.804Z,28.36
2022-12-03T06:28:00.267Z,28.67
2022-12-03T06:30:26.702Z,28.62
2022-12-03T06:32:53.106Z,29.48
2022-12-03T06:35:19.537Z,28.78
2022-12-03T06:37:45.972Z,29.01
2022-12-03T06:40:12.391Z,29.31
2022-12-03T06:42:38.850Z,28.69
2022-12-03T06:45:05.283Z,29.20
2022-12-03T06:47:31.742Z,29.02
2022-12-03T06:49:58.186Z,28.69
2022-12-03T06:52:24.599Z,27.73
2022-12-03T06:54:51.233Z,29.66
2022-12-03T06:57:17.756Z,28.50
2022-12-03T06:59:44.205Z,28.21
2022-12-03T07:02:10.683Z,28.29
2022-12-03T07:04:38.387Z,28.99
2022-12-03T07:07:07.373Z,27.77
2022-12-03T07:09:33.802Z,28.61
2022-12-03T07:12:00.231Z,27.87
2022-12-03T07:14:26.686Z,29.09
2022-12-03T07:16:53.143Z,28.06
2022-12-03T07:19:19.591Z,28.68
2022-12-03T07:21:46.029Z,29.32
2022-12-03T07:24:12.489Z,28.91
2022-12-03T07:26:38.942Z,27.32
2022-12-03T07:29:05.365Z,26.76
2022-12-03T07:31:31.956Z,27.52
2022-12-03T07:33:58.402Z,26.89
2022-12-03T07:36:24.816Z,29.76
2022-12-03T07:38:51.303Z,26.75
2022-12-03T07:41:17.743Z,27.69
2022-12-03T07:43:44.168Z,27.72
2022-12-03T07:46:10.625Z,28.97
2022-12-03T07:48:37.064Z,28.63
2022-12-03T07:51:03.500Z,28.84
2022-12-03T07:53:29.928Z,28.04
2022-12-03T07:55:56.371Z,28.07
2022-12-03T07:58:22.831Z,27.89
2022-12-03T08:00:49.348Z,26.88
2022-12-03T08:03:15.803Z,27.78
2022-12-03T08:05:42.205Z,27.54
2022-12-03T08:08:08.644Z,26.46
2022-12-03T08:10:35.107Z,26.71
2022-12-03T08:13:01.559Z,26.46
2022-12-03T08:15:30.198Z,28.17
2022-12-03T08:18:00.213Z,27.70
2022-12-03T08:20:26.661Z,26.45
2022-12-03T08:22:53.086Z,25.45
2022-12-03T08:25:19.494Z,25.62
2022-12-03T08:27:45.923Z,32.11
2022-12-03T08:30:12.360Z,25.50
2022-12-03T08:32:38.784Z,25.03
2022-12-03T08:35:05.200Z,25.35
2022-12-03T08:37:31.654Z,26.29
2022-12-03T08:39:58.081Z,25.25
2022-12-03T08:42:24.497Z,25.23
2022-12-03T08:44:51.065Z,25.55
2022-12-03T08:47:17.567Z,26.86
2022-12-03T08:49:44.007Z,27.31
2022-12-03T08:52:10.466Z,26.59
2022-12-03T08:54:36.881Z,26.49
2022-12-03T08:57:03.291Z,26.45
2022-12-03T08:59:29.718Z,26.49
2022-12-03T09:01:56.138Z,24.46
2022-12-03T09:04:22.692Z,24.03
2022-12-03T09:06:49.198Z,24.77
2022-12-03T09:09:15.605Z,76.98
2022-12-03T09:11:42.058Z,60.66
2022-12-03T09:14:09.800Z,125.99
2022-12-03T09:16:39.055Z,145.68
2022-12-03T09:19:05.587Z,215.55
2022-12-03T09:21:32.024Z,173.51
2022-12-03T09:23:58.465Z,54.14
2022-12-03T09:26:24.867Z,60.23
2022-12-03T09:28:51.318Z,63.45
2022-12-03T09:31:17.780Z,71.94
2022-12-03T09:33:44.342Z,84.02
2022-12-03T09:36:10.772Z,116.83
2022-12-03T09:38:37.226Z,34.05
2022-12-03T09:41:03.703Z,32.23
2022-12-03T09:43:49.547Z,29.42
2022-12-03T09:46:17.002Z,27.20
2022-12-03T09:48:43.511Z,57.40
2022-12-03T09:51:09.983Z,88.23
2022-12-03T09:53:41.053Z,31.03
2022-12-03T09:56:07.908Z,24.70
2022-12-03T09:58:35.095Z,24.67
2022-12-03T10:01:01.700Z,25.08
2022-12-03T10:03:29.996Z,24.56
2022-12-03T10:05:56.638Z,25.85
2022-12-03T10:08:24.503Z,25.88
2022-12-03T10:10:52.494Z,25.19
2022-12-03T10:13:25.319Z,24.87
2022-12-03T10:15:52.149Z,24.37
2022-12-03T10:18:18.571Z,24.34
2022-12-03T10:20:45.019Z,24.15
2022-12-03T10:23:11.443Z,24.29
2022-12-03T10:25:37.921Z,23.74
2022-12-03T10:28:04.355Z,23.71
2022-12-03T10:30:30.923Z,24.11
2022-12-03T10:32:57.403Z,22.58
2022-12-03T10:35:23.867Z,22.69
2022-12-03T10:37:50.296Z,22.95
2022-12-03T10:40:16.742Z,22.51
2022-12-03T10:42:43.208Z,23.47
2022-12-03T10:45:09.631Z,23.30
2022-12-03T10:47:36.291Z,23.38
2022-12-03T10:50:02.820Z,21.95
2022-12-03T10:52:29.258Z,23.60
2022-12-03T10:54:56.067Z,24.62
2022-12-03T10:57:22.684Z,23.66
2022-12-03T10:59:49.119Z,24.92
2022-12-03T11:02:15.574Z,24.43
2022-12-03T11:04:41.995Z,25.46
2022-12-03T11:07:08.432Z,23.29
2022-12-03T11:09:34.882Z,23.25
2022-12-03T11:12:01.367Z,25.06
2022-12-03T11:14:27.772Z,25.80
2022-12-03T11:16:56.550Z,23.92
2022-12-03T11:19:28.790Z,24.21
2022-12-03T11:21:55.215Z,24.14
2022-12-03T11:24:21.634Z,24.32
2022-12-03T11:26:48.052Z,24.37
2022-12-03T11:29:14.460Z,23.62
2022-12-03T11:31:40.949Z,23.03
2022-12-03T11:34:07.460Z,23.93
2022-12-03T11:37:00.515Z,24.40
2022-12-03T11:39:20.453Z,25.95
2022-12-03T11:41:46.871Z,24.18
2022-12-03T11:44:13.280Z,23.34
2022-12-03T11:46:39.772Z,24.15
2022-12-03T11:49:06.266Z,24.11
2022-12-03T11:51:32.729Z,26.21
2022-12-03T11:53:59.142Z,24.83
2022-12-03T11:56:25.559Z,25.30
2022-12-03T11:58:51.982Z,27.42
2022-12-03T12:01:18.429Z,25.77
2022-12-03T12:03:45.038Z,27.30
2022-12-03T12:06:11.564Z,26.60
2022-12-03T12:08:38.027Z,25.58
2022-12-03T12:11:04.439Z,23.64
2022-12-03T12:13:30.862Z,24.82
2022-12-03T12:15:57.332Z,26.82
2022-12-03T12:18:23.772Z,26.23
2022-12-03T12:20:50.213Z,28.21
2022-12-03T12:23:16.621Z,28.70
2022-12-03T12:25:43.035Z,26.63
2022-12-03T12:28:09.504Z,25.65
2022-12-03T12:30:35.942Z,26.92
2022-12-03T12:33:02.378Z,27.74
2022-12-03T12:35:28.811Z,25.33
2022-12-03T12:37:59.536Z,26.01
2022-12-03T12:40:26.901Z,27.05
2022-12-03T12:42:53.334Z,28.43
2022-12-03T12:45:19.773Z,29.56
2022-12-03T12:47:46.292Z,31.38
2022-12-03T12:50:12.776Z,27.88
2022-12-03T12:52:39.284Z,23.80
2022-12-03T12:55:05.730Z,22.86
2022-12-03T12:57:32.183Z,23.89
2022-12-03T12:59:58.615Z,23.70
2022-12-03T13:02:25.121Z,23.98
2022-12-03T13:04:51.583Z,23.85
2022-12-03T13:07:18.012Z,24.26
2022-12-03T13:09:44.461Z,25.21
2022-12-03T13:12:10.898Z,22.31
2022-12-03T13:14:37.324Z,23.32
2022-12-03T13:17:03.762Z,23.91
2022-12-03T13:19:30.195Z,23.88
2022-12-03T13:21:56.606Z,26.43
2022-12-03T13:24:23.082Z,23.25
2022-12-03T13:26:49.526Z,24.45
2022-12-03T13:29:15.965Z,23.77
2022-12-03T13:31:44.318Z,23.80
2022-12-03T13:34:10.917Z,26.53
2022-12-03T13:36:37.328Z,25.38
2022-12-03T13:39:03.770Z,24.00
2022-12-03T13:41:30.204Z,24.55
2022-12-03T13:43:56.673Z,23.87
2022-12-03T13:46:23.257Z,24.15
2022-12-03T13:48:49.776Z,23.29
2022-12-03T13:51:16.175Z,23.98
2022-12-03T13:53:43.016Z,23.95
2022-12-03T13:56:09.466Z,24.48
2022-12-03T13:58:35.938Z,24.09
2022-12-03T14:01:02.518Z,23.74
2022-12-03T14:03:28.978Z,24.21
2022-12-03T14:05:55.411Z,24.46
2022-12-03T14:08:21.942Z,24.47
2022-12-03T14:10:48.435Z,24.71
2022-12-03T14:13:14.822Z,25.20
2022-12-03T14:15:41.238Z,24.16
2022-12-03T14:18:07.671Z,22.93
2022-12-03T14:20:34.069Z,23.38
2022-12-03T14:23:00.487Z,23.39
2022-12-03T14:25:26.960Z,23.66
2022-12-03T14:27:53.398Z,22.48
2022-12-03T14:30:19.845Z,23.57
2022-12-03T14:32:46.275Z,29.88
2022-12-03T14:35:12.669Z,25.68
2022-12-03T14:37:39.082Z,24.37
2022-12-03T14:40:05.502Z,25.75
2022-12-03T14:42:31.987Z,32.66
2022-12-03T14:44:58.413Z,26.75
2022-12-03T14:47:24.844Z,31.11
2022-12-03T14:49:51.711Z,25.70
2022-12-03T14:52:18.379Z,28.71
2022-12-03T14:54:44.817Z,28.94
2022-12-03T14:57:11.244Z,35.82
2022-12-03T14:59:37.684Z,26.78
2022-12-03T15:02:04.251Z,27.45
2022-12-03T15:04:30.711Z,28.49
2022-12-03T15:06:57.163Z,23.93
2022-12-03T15:09:38.671Z,22.76
2022-12-03T15:12:05.089Z,23.95
2022-12-03T15:14:31.569Z,25.02
2022-12-03T15:16:58.119Z,30.40
2022-12-03T15:19:24.650Z,30.46
2022-12-03T15:21:51.078Z,25.56
2022-12-03T15:24:17.552Z,30.18
2022-12-03T15:26:44.011Z,27.04
2022-12-03T15:29:10.569Z,27.80
2022-12-03T15:31:37.053Z,25.30
2022-12-03T15:34:03.522Z,22.83
2022-12-03T15:36:29.937Z,23.35
2022-12-03T15:38:56.378Z,25.45
2022-12-03T15:41:22.852Z,33.45
2022-12-03T15:43:49.286Z,34.20
2022-12-03T15:46:15.766Z,29.46
2022-12-03T15:48:42.247Z,29.53
2022-12-03T15:51:08.682Z,23.97
2022-12-03T15:53:35.099Z,23.61
2022-12-03T15:56:01.546Z,24.66
2022-12-03T15:58:28.019Z,24.69
2022-12-03T16:00:54.467Z,48.96
2022-12-03T16:03:20.965Z,47.29
2022-12-03T16:05:47.448Z,35.30
2022-12-03T16:08:13.895Z,22.88
2022-12-03T16:10:40.348Z,35.94
2022-12-03T16:13:06.781Z,34.15
2022-12-03T16:15:33.258Z,24.63
2022-12-03T16:17:59.704Z,22.84
2022-12-03T16:20:26.120Z,22.00
2022-12-03T16:22:52.513Z,35.25
2022-12-03T16:25:18.941Z,27.61
2022-12-03T16:27:45.394Z,25.07
2022-12-03T16:30:11.800Z,21.50
2022-12-03T16:32:38.232Z,21.31
2022-12-03T16:35:04.632Z,22.42
2022-12-03T16:37:31.038Z,21.01
2022-12-03T16:39:57.598Z,21.27
2022-12-03T16:42:24.158Z,21.45
2022-12-03T16:44:50.603Z,23.08
2022-12-03T16:47:17.023Z,19.59
2022-12-03T16:49:43.458Z,20.97
2022-12-03T16:52:09.904Z,21.44
2022-12-03T16:54:36.318Z,24.03
2022-12-03T16:57:02.765Z,19.05
2022-12-03T16:59:29.234Z,19.66
2022-12-03T17:01:55.735Z,19.37
2022-12-03T17:04:22.224Z,20.58
2022-12-03T17:06:48.636Z,22.45
2022-12-03T17:09:15.175Z,24.80
2022-12-03T17:11:41.629Z,23.57
2022-12-03T17:14:08.036Z,22.90
2022-12-03T17:16:34.500Z,20.69
2022-12-03T17:19:00.965Z,20.74
2022-12-03T17:21:30.868Z,20.60
2022-12-03T17:24:00.131Z,20.92
2022-12-03T17:26:26.580Z,22.26
2022-12-03T17:28:53.005Z,19.80
2022-12-03T17:31:19.506Z,20.42
2022-12-03T17:33:46.002Z,21.64
2022-12-03T17:36:12.444Z,21.79
2022-12-03T17:38:39.585Z,21.87
2022-12-03T17:41:06.065Z,22.12
2022-12-03T17:43:32.467Z,21.27
2022-12-03T17:45:58.923Z,20.87
2022-12-03T17:48:25.393Z,21.19
2022-12-03T17:50:51.842Z,20.54
2022-12-03T17:53:18.278Z,19.79
2022-12-03T17:55:45.344Z,21.12
2022-12-03T17:58:11.818Z,23.01
2022-12-03T18:00:38.370Z,21.94
2022-12-03T18:03:04.778Z,22.65
2022-12-03T18:05:31.196Z,19.94
2022-12-03T18:07:57.792Z,19.41
2022-12-03T18:10:24.329Z,22.34
2022-12-03T18:12:50.738Z,22.12
2022-12-03T18:15:17.153Z,21.76
2022-12-03T18:17:43.687Z,21.08
2022-12-03T18:20:10.093Z,20.75
2022-12-03T18:22:36.518Z,20.36
2022-12-03T18:25:02.956Z,18.84
2022-12-03T18:27:29.384Z,21.07
2022-12-03T18:29:56.179Z,19.53
2022-12-03T18:32:30.313Z,20.64
2022-12-03T18:34:56.888Z,19.83
2022-12-03T18:37:23.319Z,19.13
2022-12-03T18:39:49.719Z,20.01
2022-12-03T18:42:16.146Z,21.89
2022-12-03T18:44:47.907Z,20.16
2022-12-03T18:47:16.084Z,24.00
2022-12-03T18:49:42.563Z,23.02
2022-12-03T18:52:08.981Z,20.41
2022-12-03T18:54:35.420Z,18.95
2022-12-03T18:57:01.864Z,18.77
2022-12-03T18:59:28.282Z,20.57
2022-12-03T19:01:54.750Z,19.18
2022-12-03T19:04:21.228Z,18.10
2022-12-03T19:06:47.658Z,18.09
2022-12-03T19:09:14.141Z,19.84
2022-12-03T19:11:40.569Z,19.11
2022-12-03T19:14:06.984Z,19.54
2022-12-03T19:16:33.588Z,19.42
2022-12-03T19:19:00.043Z,20.51
2022-12-03T19:21:30.712Z,19.27
2022-12-03T19:24:23.256Z,19.17
2022-12-03T19:26:46.338Z,20.11
2022-12-03T19:29:12.773Z,20.43
2022-12-03T19:31:39.279Z,19.57
2022-12-03T19:34:05.727Z,19.35
2022-12-03T19:36:32.151Z,20.14
2022-12-03T19:38:58.555Z,20.20
2022-12-03T19:41:24.979Z,21.20
2022-12-03T19:43:51.415Z,20.86
2022-12-03T19:46:17.957Z,21.39
2022-12-03T19:48:44.457Z,21.29
2022-12-03T19:51:33.187Z,20.29
2022-12-03T19:53:57.263Z,20.77
2022-12-03T19:56:23.660Z,22.99
2022-12-03T19:58:50.071Z,21.18
2022-12-03T20:01:16.583Z,21.48
2022-12-03T20:03:43.007Z,21.35
2022-12-03T20:06:09.492Z,21.69
2022-12-03T20:08:35.904Z,21.55
2022-12-03T20:11:02.418Z,22.35
2022-12-03T20:13:33.527Z,22.39
2022-12-03T20:16:02.898Z,22.87
2022-12-03T20:18:29.421Z,22.03
2022-12-03T20:20:55.875Z,22.25
2022-12-03T20:23:22.278Z,21.74
2022-12-03T20:25:48.681Z,22.07
2022-12-03T20:28:15.100Z,21.57
2022-12-03T20:30:41.554Z,21.26
2022-12-03T20:33:07.950Z,20.67
2022-12-03T20:35:34.351Z,21.68
2022-12-03T20:38:00.788Z,21.90
2022-12-03T20:40:27.254Z,22.30
2022-12-03T20:42:53.721Z,23.10
2022-12-03T20:45:20.159Z,23.32
2022-12-03T20:47:46.605Z,22.83
2022-12-03T20:50:13.028Z,23.14
2022-12-03T20:52:45.257Z,22.86
2022-12-03T20:55:19.251Z,25.13
2022-12-03T20:57:45.727Z,23.29
2022-12-03T21:00:12.142Z,22.84
2022-12-03T21:02:38.600Z,23.44
2022-12-03T21:05:05.063Z,23.09
2022-12-03T21:07:31.533Z,22.70
2022-12-03T21:09:58.140Z,23.85
2022-12-03T21:12:24.591Z,24.57
2022-12-03T21:14:51.027Z,25.18
2022-12-03T21:17:17.463Z,24.26
2022-12-03T21:19:43.923Z,24.21
2022-12-03T21:22:10.333Z,25.72
2022-12-03T21:24:36.747Z,24.29
2022-12-03T21:27:03.199Z,23.11
2022-12-03T21:29:29.608Z,23.21
2022-12-03T21:31:56.039Z,24.17
2022-12-03T21:34:22.469Z,23.25
2022-12-03T21:36:48.897Z,22.71
2022-12-03T21:39:15.402Z,22.32
2022-12-03T21:41:41.947Z,22.65
2022-12-03T21:44:28.347Z,23.46
2022-12-03T21:47:12.342Z,23.58
2022-12-03T21:49:40.320Z,22.63
2022-12-03T21:52:06.763Z,22.77
2022-12-03T21:54:33.214Z,21.97
2022-12-03T21:56:59.677Z,21.77
2022-12-03T21:59:26.120Z,24.01
2022-12-03T22:01:52.626Z,23.50
2022-12-03T22:04:19.114Z,22.14
2022-12-03T22:06:45.534Z,22.03
2022-12-03T22:09:12.028Z,21.01
2022-12-03T22:11:38.443Z,22.69
2022-12-03T22:14:04.904Z,22.42
2022-12-03T22:16:31.412Z,23.93
2022-12-03T22:18:57.883Z,23.79
2022-12-03T22:21:24.334Z,24.59
2022-12-03T22:23:50.909Z,25.68
2022-12-03T22:26:17.317Z,23.39
2022-12-03T22:28:43.745Z,22.74
2022-12-03T22:31:10.281Z,22.50
2022-12-03T22:33:36.781Z,22.98
2022-12-03T22:36:03.301Z,23.77
2022-12-03T22:38:29.768Z,23.86
2022-12-03T22:40:56.195Z,23.42
2022-12-03T22:43:22.620Z,23.64
2022-12-03T22:45:49.058Z,24.03
2022-12-03T22:48:15.493Z,23.70
2022-12-03T22:50:41.898Z,22.96
2022-12-03T22:53:08.339Z,23.79
2022-12-03T22:55:34.764Z,24.43
2022-12-03T22:58:01.250Z,24.05
2022-12-03T23:00:27.696Z,23.70
2022-12-03T23:02:54.156Z,23.77
2022-12-03T23:05:20.604Z,23.56
2022-12-03T23:07:47.086Z,23.44
2022-12-03T23:10:13.559Z,24.20
2022-12-03T23:12:39.984Z,23.85
2022-12-03T23:15:08.574Z,23.77
2022-12-03T23:17:35.013Z,26.28
2022-12-03T23:20:01.472Z,25.02
2022-12-03T23:22:27.974Z,24.07
2022-12-03T23:24:54.437Z,23.87
2022-12-03T23:27:20.875Z,24.21
2022-12-03T23:29:47.312Z,25.97
2022-12-03T23:32:13.730Z,24.77
2022-12-03T23:34:40.212Z,25.37
2022-12-03T23:37:06.699Z,25.66
2022-12-03T23:39:33.117Z,26.25
2022-12-03T23:41:59.566Z,25.29
2022-12-03T23:44:26.051Z,25.26
2022-12-03T23:46:52.532Z,25.61
2022-12-03T23:49:18.997Z,25.81
2022-12-03T23:51:45.429Z,25.83
2022-12-03T23:54:11.880Z,25.49
2022-12-03T23:56:38.303Z,25.64
2022-12-03T23:59:04.702Z,26.30
